Domov               UVHVVR             MKGP            O straneh              
ZDRAVSTVENO VARSTVO RASTLIN
  MREŽA AGROMET. POSTAJ
 ► PROGNOSTIČNA OBVESTILA
AGROMETEOROLOŠKI PODATKI -
ARSO
OBVLADOVANJE TVEGANJ ZARADI
NEUGODNIH VREMENSKIH RAZMER
  ► NARAVNE NESREČE
  ► SUŠA/MOČA
  ► NAMAKANJE
  ► ŽLED (gozdarstvo)
KARTOGRAFSKI PRIKAZI
SPLETNE POVEZAVE
PROJEKTI IN PUBLIKACIJE

AGROMETEOROLOŠKA MREŽA: VREMENSKE POSTAJE IN FENOLOŠKA OPAZOVANJA

Pregled podatkov za lokacijo Kovor, meteorološka postaja 45205

Pregled senzorjev na lokaciji

ID Ime Zadnja
vrednost
Datum
zadnje
spremembe
Tip
senzorja
3143 Padavine (mm) 0 mm 16.12.2017 19:00 Rain-O-Matic
3144 Temperatura 2 m (°C) 0,24 °C 16.12.2017 19:00 50YA
3145 Relativna vlaga 2 m (% RH) 92,57 % RH 16.12.2017 19:00 50YA
3146 Omočenost lista (U) 6 U 16.12.2017 19:00 A730WET
3147 Temperatura tal 5 cm (°C) 3,3 °C 16.12.2017 19:00 99TG411E
3954 Temperatura 20 cm (°C) -0,55 °C 16.12.2017 19:00 50YA
3955 Relativna vlaga 20 cm (% RH) 97,6 % RH 16.12.2017 19:00 50YA

Pregled podatkov zadnjih 24 ur

Zap.
št.
Datum in čas Kovor
Omočenost
lista
Padavine Relativna
vlaga
2
m
Relativna
vlaga
20
cm
Temperatura
2
m
Temperatura
20
cm
Temperatura
tal
5
cm
0 16.12.2017 19:00 6 0 92,57 97,6 0,24 -0,55 3,3
1 16.12.2017 18:30 4 0 95,69 99,7 0,2 -0,7 3,37
2 16.12.2017 18:00 3 0 97,98 99,96 -0,28 -1,42 3,42
3 16.12.2017 17:30 3 0 98,27 99,93 -0,39 -1,4 3,48
4 16.12.2017 17:00 2 0 97,68 99,54 -0,12 -1,23 3,57
5 16.12.2017 16:30 3 0 96,64 96,78 0,25 -1,02 3,62
6 16.12.2017 16:00 2 0 91,95 92,24 1,35 1,06 3,7
7 16.12.2017 15:30 0 0 82,7 85,42 3 3,35 3,79
8 16.12.2017 15:00 0 0 80,16 84,7 2,66 2,74 3,73
9 16.12.2017 14:30 0 0 84,16 88,47 2,54 2,67 3,71
10 16.12.2017 14:00 0 0 86,31 89,7 2,49 2,78 3,69
11 16.12.2017 13:30 0 0 90,47 93,15 2,17 2,61 3,64
12 16.12.2017 13:00 0 0 90,87 93,59 2,09 2,49 3,61
13 16.12.2017 12:30 0 0 93,5 95,34 1,8 2,1 3,57
14 16.12.2017 12:00 0 0 96,4 97,56 1,66 2,01 3,54
15 16.12.2017 11:30 0 0 97,24 98,42 1,65 2,04 3,52
16 16.12.2017 11:00 0 0 97,64 98,29 1,74 2,29 3,5
17 16.12.2017 10:30 0 0 98,5 99,26 1,55 2,02 3,47
18 16.12.2017 10:00 0 0 99,43 99,95 1,39 1,78 3,45
19 16.12.2017 09:30 0 0 99,97 99,96 1,08 1,27 3,42
20 16.12.2017 09:00 2 0 100 99,96 0,79 0,9 3,41
21 16.12.2017 08:30 3 0 100 99,96 0,68 0,67 3,4
22 16.12.2017 08:00 3 0 100 99,96 0,65 0,56 3,4
23 16.12.2017 07:30 3 0 100 99,96 0,64 0,52 3,42
24 16.12.2017 07:00 3 0 100 99,97 0,57 0,41 3,42
25 16.12.2017 06:30 2 0 100 99,97 0,43 0,34 3,43
26 16.12.2017 06:00 2 0 100 99,96 0,31 0,3 3,42
27 16.12.2017 05:30 2 0 100 99,96 0,31 0,26 3,44
28 16.12.2017 05:00 2 0 99,99 99,97 0,32 0,21 3,43
29 16.12.2017 04:30 2 0,2 99,73 99,96 0,37 0,23 3,44
30 16.12.2017 04:00 2 0 98,77 99,96 0,45 0,34 3,45
31 16.12.2017 03:30 2 0 97,61 99,95 0,69 0,52 3,47
32 16.12.2017 03:00 3 0 96,08 99,31 1,05 0,82 3,49
33 16.12.2017 02:30 3 0 96,06 99,62 1,1 0,83 3,5
34 16.12.2017 02:00 2 0 95,18 99,45 1,08 0,75 3,51
35 16.12.2017 01:30 2 0,2 94,3 99,4 1,13 0,72 3,56
36 16.12.2017 01:00 2 0,2 92,49 98,35 1,29 0,85 3,61
37 16.12.2017 00:30 2 0,2 91,37 98,24 1,48 0,9 3,64
38 16.12.2017 00:00 2 0 93,2 98,85 1,41 0,93 3,68
39 15.12.2017 23:30 3 0,2 91,63 97,43 1,57 1,15 3,74
40 15.12.2017 23:00 4 0 87,9 95,3 1,97 1,41 3,79
41 15.12.2017 22:30 4 0,2 87,09 93,92 2,09 1,58 3,86
42 15.12.2017 22:00 6 0,2 84,05 91,34 2,41 1,87 3,92
43 15.12.2017 21:30 7 0 82,06 89,87 2,75 2,18 4
44 15.12.2017 21:00 6 0 79,51 87,52 3,22 2,62 4,1
45 15.12.2017 20:30 6 0 79,31 87,79 3,5 2,81 4,19
46 15.12.2017 20:00 6 0,2 83,11 90,05 3,6 3,04 4,28
47 15.12.2017 19:30 5 0,4 86,26 91,9 3,75 3,27 4,37
© 2011 Ministrstvo za kmetijstvo, gozdarstvo in prehrano. Vse pravice pridržane.